Bremerton, WA

5:21 PM PDT on September 20, 2014 (GMT -0700)
Sunset Illahee | Change Station
CLOSE
Current Station
Personal Weather Station
Location: Bremerton, WA
Elevation: 325 ft
Nearby Weather Stations

Elev 325 ft 47.61 °N, 122.61 °W | Updated 7 minutes ago

Clear
Clear
69.4 °F
Feels Like 69.4 °F
N
3.2
Wind Variable Wind from WNW

Today
High -- | Low -- °F
--% Chance of Precip.
Yesterday
High -- | Low -- °F
Precip. -- in
6:54 AM 7:12 PM
Waning Crescent, 9% visible
Pressure 29.96 in
Visibility 10.0 miles
Clouds Clear
Dew Point 58 °F
Humidity 68%
Rainfall 0.00 in
Snow Depth 0 in , 0 in , 0 in
UV 1 out of 12
Pollen 2.20 out of 12
Air Quality Not available.
Flu Activity Not available.
METAR KPWT 210015Z AUTO 03010G15KT 10SM CLR 24/13 A2996 RMK AO1

More Conditions Fewer Conditions

Pressure 29.96 in
Visibility 10.0 miles
Clouds Clear
Dew Point 58 °F
Humidity 68%
Rainfall 0.00 in
Snow Depth 0 in , 0 in , 0 in
UV 1 out of 12
Pollen 2.20 out of 12
Air Quality Not available.
Flu Activity Not available.
METAR KPWT 210015Z AUTO 03010G15KT 10SM CLR 24/13 A2996 RMK AO1

More Conditions Fewer Conditions

10-Day Weather Forecast

Almanac

Astronomy

Sep. 20, 2014 Rise Set
Actual Time 6:54 AM PDT 7:12 PM PDT
Civil Twilight 6:23 AM PDT 7:42 PM PDT
Nautical Twilight 5:47 AM PDT 8:19 PM PDT
Astronomical Twilight 5:09 AM PDT 8:56 PM PDT
Moon 3:27 AM PDT (9/20) 5:27 PM PDT (9/20)
Length of Visible Light 13h 19m
Length of Day
12h 17m
Tomorrow will be 3m 25s shorter.
Waning Crescent, 9% of the Moon is Illuminated
Today
Waning Crescent
Sep 24
New
Oct 1
First Quarter
Oct 8
Full
Oct 15
Last Quarter

Today's Extremes

State Highs State Lows

Community

WunderPhotos

Upload Photos

1,755,000 photos uploaded!

WunderBlogs® & News

Nearby

Snow Depth

Station Depth Elevation
Rainy Pass 0 in 4780 ft
Sasse Ridge 0 in 4200 ft
Swift Creek 0 in 3770 ft
Surprise Lakes 0 in 4250 ft
Moses Mountain 1 in 5300 ft

Earthquake Activity

City Distance Mag. Time & Date
Seabeck, Washington 18 miles 4.0 3:06 AM PDT
2014-09-17
Minimum magnitude displayed is 2.5.

Coastal Water Temperatures

Place Temperature
Port Townsend, WA 52.0 °F
Seattle, WA 55.9 °F
Friday Harbor, WA 52.0 °F
Tacoma, WA 55.9 °F

Nearby Weather Stations